Time;durP1;ratioP1;P1;durP2;ratioP2;P2;SDS_P1;SDS_P2;PMS_P1;PMS_P2;Temp;Humidity;BMP_temperature;BMP_pressure;BME280_temperature;BME280_humidity;BME280_pressure;Samples;Min_cycle;Max_cycle;Signal;HPM_P1;HPM_P2
2024/03/06 00:01:06;;;;;;;7.30;4.40;;;23.00;99.90;;;;;;4939241;29;20039;-42
2024/03/06 00:03:32;;;;;;;7.30;5.57;;;23.00;99.90;;;;;;4955851;28;20115;-40
2024/03/06 00:05:58;;;;;;;8.23;4.93;;;22.90;99.90;;;;;;4954207;29;20039;-41
2024/03/06 00:08:24;;;;;;;6.22;4.75;;;22.90;99.90;;;;;;4955511;28;20098;-40
2024/03/06 00:10:50;;;;;;;6.88;4.50;;;22.90;99.90;;;;;;4955826;28;20385;-41
2024/03/06 00:13:15;;;;;;;6.30;4.45;;;22.90;99.90;;;;;;4955377;28;20034;-41
2024/03/06 00:15:41;;;;;;;6.30;4.80;;;22.90;99.90;;;;;;4955365;28;20453;-41
2024/03/06 00:18:07;;;;;;;8.05;5.60;;;22.90;99.90;;;;;;4955311;28;20027;-41
2024/03/06 00:20:33;;;;;;;7.90;5.00;;;22.90;99.90;;;;;;4955497;28;20035;-41
2024/03/06 00:22:59;;;;;;;6.07;4.72;;;22.90;99.90;;;;;;4955322;28;20535;-40
2024/03/06 00:25:25;;;;;;;7.97;5.38;;;22.90;99.90;;;;;;4955128;28;20433;-41
2024/03/06 00:27:51;;;;;;;7.68;5.40;;;22.90;99.90;;;;;;4955355;28;20031;-41
2024/03/06 00:30:16;;;;;;;7.95;5.18;;;22.90;99.90;;;;;;4953923;28;20380;-41
2024/03/06 00:32:42;;;;;;;8.07;5.13;;;22.90;99.90;;;;;;4953876;28;20125;-40
2024/03/06 00:35:08;;;;;;;7.00;5.05;;;22.80;99.90;;;;;;4955060;28;20034;-42
2024/03/06 00:37:34;;;;;;;6.38;4.97;;;22.80;99.90;;;;;;4954945;28;20408;-41
2024/03/06 00:40:00;;;;;;;7.05;4.60;;;22.80;99.90;;;;;;4954848;28;20023;-41
2024/03/06 00:42:25;;;;;;;5.88;4.60;;;22.80;99.90;;;;;;4955070;28;20027;-42
2024/03/06 00:44:51;;;;;;;8.30;5.00;;;22.80;99.90;;;;;;4955045;28;20495;-41
2024/03/06 00:47:17;;;;;;;7.70;5.20;;;22.80;99.90;;;;;;4953647;28;20403;-41
2024/03/06 00:49:43;;;;;;;6.45;5.10;;;22.80;99.90;;;;;;4953890;28;20617;-41
2024/03/06 00:52:09;;;;;;;6.95;4.85;;;22.80;99.90;;;;;;4954883;28;20027;-41
2024/03/06 00:54:35;;;;;;;7.72;5.50;;;22.80;99.90;;;;;;4953515;28;20111;-41
2024/03/06 00:57:01;;;;;;;6.93;5.00;;;22.70;99.90;;;;;;4954858;28;20031;-43
2024/03/06 00:59:28;;;;;;;8.55;5.38;;;22.70;99.90;;;;;;4954639;28;20059;-40
2024/03/06 01:01:56;;;;;;;8.75;5.43;;;22.70;99.90;;;;;;4942664;23;20056;-62
2024/03/06 01:04:22;;;;;;;9.05;6.03;;;22.70;99.90;;;;;;4916667;29;20031;-64
2024/03/06 01:06:48;;;;;;;7.53;5.28;;;22.70;99.90;;;;;;4916307;29;20040;-62
2024/03/06 01:09:14;;;;;;;8.15;5.53;;;22.70;99.90;;;;;;4916401;29;20031;-62
2024/03/06 01:11:40;;;;;;;7.80;5.75;;;22.70;99.90;;;;;;4916359;29;20028;-64
2024/03/06 01:14:05;;;;;;;8.38;5.72;;;22.70;99.90;;;;;;4916186;29;20032;-63
2024/03/06 01:16:31;;;;;;;7.82;5.38;;;22.70;99.90;;;;;;4914959;29;20496;-62
2024/03/06 01:18:57;;;;;;;7.00;5.43;;;22.60;99.90;;;;;;4916272;29;20079;-63
2024/03/06 01:21:23;;;;;;;8.40;5.53;;;22.70;99.90;;;;;;4916333;29;20028;-63
2024/03/06 01:23:48;;;;;;;7.70;5.30;;;22.60;99.90;;;;;;4916244;29;20042;-62
2024/03/06 01:26:14;;;;;;;8.65;6.22;;;22.60;99.90;;;;;;4915932;29;20480;-64
2024/03/06 01:28:40;;;;;;;6.97;5.80;;;22.60;99.90;;;;;;4916164;29;20024;-63
2024/03/06 01:31:06;;;;;;;8.85;5.50;;;22.60;99.90;;;;;;4916099;29;20083;-63
2024/03/06 01:33:32;;;;;;;7.82;5.63;;;22.60;99.90;;;;;;4915010;29;20519;-63
2024/03/06 01:35:58;;;;;;;7.38;5.70;;;22.60;99.90;;;;;;4916056;29;20060;-62
2024/03/06 01:38:23;;;;;;;8.00;5.78;;;22.60;99.90;;;;;;4916189;29;20027;-63
2024/03/06 01:40:49;;;;;;;7.07;5.55;;;22.60;99.90;;;;;;4914849;29;20020;-64
2024/03/06 01:43:23;;;;;;;8.73;5.90;;;22.60;99.90;;;;;;4915855;29;20477;-63
2024/03/06 01:45:49;;;;;;;10.55;6.45;;;22.50;99.90;;;;;;4915812;29;20032;-63
2024/03/06 01:48:17;;;;;;;8.02;5.97;;;22.50;99.90;;;;;;4916056;29;20056;-62
2024/03/06 01:50:43;;;;;;;8.77;5.82;;;22.50;99.90;;;;;;4915836;29;20025;-62
2024/03/06 01:53:10;;;;;;;8.30;6.30;;;22.50;99.90;;;;;;4914591;29;20472;-63
2024/03/06 01:55:37;;;;;;;8.75;6.35;;;22.50;99.90;;;;;;4914666;29;20036;-62
2024/03/06 01:58:03;;;;;;;8.38;5.90;;;22.50;99.90;;;;;;4914426;29;20036;-64
2024/03/06 02:00:29;;;;;;;10.13;6.70;;;22.50;99.90;;;;;;4916309;29;20028;-61
2024/03/06 02:02:55;;;;;;;9.60;5.97;;;22.40;99.90;;;;;;4915994;29;20029;-62
2024/03/06 02:05:22;;;;;;;9.07;5.80;;;22.40;99.90;;;;;;4915562;29;20055;-63
2024/03/06 02:07:49;;;;;;;8.32;5.53;;;22.40;99.90;;;;;;4899035;29;20035;-64
2024/03/06 02:10:14;;;;;;;8.13;6.15;;;22.40;99.90;;;;;;4898654;29;20036;-63
2024/03/06 02:12:41;;;;;;;7.25;5.82;;;22.40;99.90;;;;;;4915567;29;20107;-62
2024/03/06 02:15:08;;;;;;;8.73;6.00;;;22.40;99.90;;;;;;4915926;29;20017;-62
2024/03/06 02:17:34;;;;;;;9.43;5.93;;;22.40;99.90;;;;;;4902633;29;20128;-62
2024/03/06 02:20:05;;;;;;;10.18;6.47;;;22.30;99.90;;;;;;4919208;29;20144;-63
2024/03/06 02:22:32;;;;;;;10.25;7.18;;;22.30;99.90;;;;;;4902267;29;20028;-63
2024/03/06 02:24:58;;;;;;;9.85;6.80;;;22.30;99.90;;;;;;4919344;29;20068;-63
2024/03/06 02:27:23;;;;;;;8.75;6.20;;;22.30;99.90;;;;;;4919198;29;20123;-62
2024/03/06 02:29:49;;;;;;;7.57;6.15;;;22.30;99.90;;;;;;4919082;29;20032;-63
2024/03/06 02:32:17;;;;;;;8.45;5.95;;;22.30;99.90;;;;;;4919081;29;20028;-63
2024/03/06 02:34:43;;;;;;;9.40;6.57;;;22.30;99.90;;;;;;4918995;29;20035;-63
2024/03/06 02:37:09;;;;;;;8.55;6.03;;;22.30;99.90;;;;;;4919117;29;20028;-63
2024/03/06 02:39:35;;;;;;;9.43;6.47;;;22.30;99.90;;;;;;4918951;29;20028;-62
2024/03/06 02:42:01;;;;;;;10.20;6.53;;;22.20;99.90;;;;;;4901936;29;20487;-61
2024/03/06 02:44:27;;;;;;;9.32;6.63;;;22.20;99.90;;;;;;4918753;29;20055;-62
2024/03/06 02:46:53;;;;;;;8.52;6.00;;;22.20;99.90;;;;;;4918729;29;20064;-63
2024/03/06 02:49:18;;;;;;;9.40;6.88;;;22.20;99.90;;;;;;4918757;29;20024;-62
2024/03/06 02:51:45;;;;;;;9.90;6.28;;;22.20;99.90;;;;;;4901652;29;20028;-62
2024/03/06 02:54:10;;;;;;;9.52;6.20;;;22.20;99.90;;;;;;4918590;29;20035;-63
2024/03/06 02:56:36;;;;;;;9.38;6.50;;;22.20;99.90;;;;;;4918754;29;20020;-62
2024/03/06 02:59:03;;;;;;;7.20;5.32;;;22.20;99.90;;;;;;4918670;29;20107;-63
2024/03/06 03:01:29;;;;;;;10.10;6.10;;;22.10;99.90;;;;;;4906950;29;20048;-62
2024/03/06 03:03:56;;;;;;;9.53;5.93;;;22.10;99.90;;;;;;4918708;29;20103;-62
2024/03/06 03:06:23;;;;;;;6.85;5.57;;;22.10;99.90;;;;;;4918401;29;20040;-63
2024/03/06 03:08:50;;;;;;;9.13;6.07;;;22.10;99.90;;;;;;4918418;29;20035;-63
2024/03/06 03:11:16;;;;;;;9.05;6.03;;;22.10;99.90;;;;;;4917193;29;20067;-61
2024/03/06 03:13:42;;;;;;;8.05;6.05;;;22.10;99.90;;;;;;4918367;29;20063;-62
2024/03/06 03:16:18;;;;;;;9.75;6.60;;;22.00;99.90;;;;;;4918431;29;20051;-63
2024/03/06 03:18:45;;;;;;;9.95;6.05;;;22.10;99.90;;;;;;4917031;29;20107;-63
2024/03/06 03:21:12;;;;;;;10.55;6.07;;;22.00;99.90;;;;;;4918144;29;20028;-63
2024/03/06 03:23:37;;;;;;;8.30;5.87;;;22.00;99.90;;;;;;4918142;29;20103;-62
2024/03/06 03:26:06;;;;;;;8.82;5.80;;;22.00;99.90;;;;;;4918229;29;20119;-63
2024/03/06 03:28:32;;;;;;;8.77;6.43;;;22.00;99.90;;;;;;4916288;29;20104;-62
2024/03/06 03:30:58;;;;;;;8.10;5.90;;;22.00;99.90;;;;;;4916797;29;20131;-61
2024/03/06 03:33:25;;;;;;;7.45;5.55;;;22.00;99.90;;;;;;4917990;29;20028;-64
2024/03/06 03:35:51;;;;;;;9.48;5.90;;;22.00;99.90;;;;;;4916564;29;20032;-62
2024/03/06 03:38:17;;;;;;;8.73;5.60;;;21.90;99.90;;;;;;4932389;29;20032;-63
2024/03/06 03:40:42;;;;;;;8.45;6.05;;;21.90;99.90;;;;;;4918136;29;20502;-62
2024/03/06 03:43:08;;;;;;;7.80;5.10;;;21.90;99.90;;;;;;4900993;29;20064;-61
2024/03/06 03:45:35;;;;;;;9.23;5.70;;;21.90;99.90;;;;;;4918030;29;20072;-63
2024/03/06 03:48:05;;;;;;;9.48;5.45;;;21.90;99.90;;;;;;4917987;29;20024;-63
2024/03/06 03:50:31;;;;;;;9.93;6.20;;;21.90;99.90;;;;;;4917953;29;20122;-63
2024/03/06 03:53:00;;;;;;;7.95;5.47;;;21.90;99.90;;;;;;4916440;29;20025;-62
2024/03/06 03:55:27;;;;;;;9.32;6.10;;;21.90;99.90;;;;;;4917680;29;20052;-63
2024/03/06 03:57:53;;;;;;;10.82;6.25;;;21.90;99.90;;;;;;4917628;29;20056;-63
2024/03/06 04:02:56;;;;;;;8.40;5.80;;;21.80;99.90;;;;;;4935085;29;20063;-47
2024/03/06 04:05:23;;;;;;;8.80;6.50;;;21.80;99.90;;;;;;4936459;29;20051;-47
2024/03/06 04:07:49;;;;;;;8.13;5.80;;;21.80;99.90;;;;;;4936498;29;20388;-48
2024/03/06 04:10:14;;;;;;;6.68;4.78;;;21.80;99.90;;;;;;4936593;29;20031;-47
2024/03/06 04:12:40;;;;;;;10.23;5.93;;;21.80;99.90;;;;;;4936401;29;20551;-48
2024/03/06 04:15:07;;;;;;;8.85;5.55;;;21.80;99.90;;;;;;4936628;29;20066;-47
2024/03/06 04:17:36;;;;;;;10.35;6.65;;;21.80;99.90;;;;;;4936432;29;20028;-47
2024/03/06 04:20:03;;;;;;;8.07;5.35;;;21.80;99.90;;;;;;4936449;29;20116;-47
2024/03/06 04:22:29;;;;;;;8.63;5.00;;;21.80;99.90;;;;;;4936283;29;20496;-47
2024/03/06 04:24:56;;;;;;;7.80;4.88;;;21.70;99.90;;;;;;4935975;29;20031;-47
2024/03/06 04:27:22;;;;;;;8.18;5.57;;;21.70;99.90;;;;;;4936145;29;20039;-47
2024/03/06 04:29:48;;;;;;;7.07;5.28;;;21.70;99.90;;;;;;4936062;29;20035;-47
2024/03/06 04:32:13;;;;;;;9.75;5.60;;;21.70;99.90;;;;;;4936034;29;20035;-47
2024/03/06 04:34:39;;;;;;;7.40;5.28;;;21.70;99.90;;;;;;4936025;29;20190;-47
2024/03/06 04:37:05;;;;;;;7.10;4.68;;;21.70;99.90;;;;;;4936221;29;20030;-47
2024/03/06 04:39:32;;;;;;;9.05;6.00;;;21.70;99.90;;;;;;4935589;29;20092;-47
2024/03/06 04:41:58;;;;;;;7.40;4.90;;;21.70;99.90;;;;;;4918823;29;20036;-47
2024/03/06 04:44:24;;;;;;;7.47;5.20;;;21.70;99.90;;;;;;4918884;29;20028;-47
2024/03/06 04:46:50;;;;;;;7.47;5.40;;;21.70;99.90;;;;;;4935735;29;20047;-47
2024/03/06 04:49:16;;;;;;;7.93;5.03;;;21.70;99.90;;;;;;4918594;29;20035;-47
2024/03/06 04:51:42;;;;;;;8.63;5.03;;;21.70;99.90;;;;;;4935856;29;20384;-49
2024/03/06 04:54:08;;;;;;;8.60;5.22;;;21.70;99.90;;;;;;4935945;29;20151;-48
2024/03/06 04:56:34;;;;;;;8.15;5.43;;;21.60;99.90;;;;;;4936075;29;20051;-49
2024/03/06 04:59:03;;;;;;;8.57;4.78;;;21.60;99.90;;;;;;4935676;29;20040;-48
2024/03/06 05:01:30;;;;;;;8.73;5.30;;;21.60;99.90;;;;;;4922949;29;20377;-49
2024/03/06 05:03:56;;;;;;;6.97;4.30;;;21.60;99.90;;;;;;4934251;29;20412;-48
2024/03/06 05:06:23;;;;;;;7.80;4.95;;;21.60;99.90;;;;;;4935500;29;20039;-48
2024/03/06 05:08:49;;;;;;;9.80;5.68;;;21.60;99.90;;;;;;4935460;29;20020;-48
2024/03/06 05:11:15;;;;;;;8.75;5.40;;;21.60;99.90;;;;;;4918709;29;20123;-48
2024/03/06 05:13:41;;;;;;;8.50;5.35;;;21.60;99.90;;;;;;4935381;29;20024;-48
2024/03/06 05:16:09;;;;;;;7.22;5.10;;;21.60;99.90;;;;;;4935699;29;20388;-48
2024/03/06 05:18:35;;;;;;;7.25;5.13;;;21.60;99.90;;;;;;4935402;29;20026;-49
2024/03/06 05:21:00;;;;;;;7.72;5.57;;;21.60;99.90;;;;;;4935378;29;20493;-48
2024/03/06 05:23:26;;;;;;;10.70;5.45;;;21.60;99.90;;;;;;4934002;29;20051;-48
2024/03/06 05:25:52;;;;;;;8.13;5.63;;;21.60;99.90;;;;;;4935231;29;20046;-48
2024/03/06 05:28:18;;;;;;;8.98;5.57;;;21.60;99.90;;;;;;4935159;29;20023;-48
2024/03/06 05:30:44;;;;;;;6.78;4.55;;;21.60;99.90;;;;;;4935335;29;20024;-48
2024/03/06 05:33:10;;;;;;;10.25;5.43;;;21.60;99.90;;;;;;4934067;29;20032;-48
2024/03/06 05:35:36;;;;;;;7.05;4.55;;;21.60;99.90;;;;;;4935132;29;20104;-48
2024/03/06 05:38:03;;;;;;;12.43;6.15;;;21.60;99.90;;;;;;4934997;29;20451;-48
2024/03/06 05:40:28;;;;;;;9.73;4.53;;;21.50;99.90;;;;;;4935017;29;20024;-48
2024/03/06 05:42:54;;;;;;;6.53;4.70;;;21.50;99.90;;;;;;4934980;29;20102;-48
2024/03/06 05:45:20;;;;;;;8.63;5.43;;;21.60;99.90;;;;;;4934876;29;20028;-48
2024/03/06 05:47:47;;;;;;;8.52;5.28;;;21.50;99.90;;;;;;4935172;29;20035;-48
2024/03/06 05:50:13;;;;;;;6.63;4.47;;;21.50;99.90;;;;;;4934102;29;20034;-48
2024/03/06 05:52:39;;;;;;;9.23;4.78;;;21.50;99.90;;;;;;4939261;29;20472;-48
2024/03/06 05:55:06;;;;;;;7.57;5.07;;;21.50;99.90;;;;;;4938841;29;20103;-48
2024/03/06 05:57:32;;;;;;;6.43;4.00;;;21.50;99.90;;;;;;4937523;29;20031;-48
2024/03/06 05:59:58;;;;;;;5.80;3.90;;;21.50;99.90;;;;;;4938677;29;20262;-48
2024/03/06 06:02:23;;;;;;;10.55;5.05;;;21.50;99.90;;;;;;4938398;29;20122;-48
2024/03/06 06:04:49;;;;;;;7.47;5.10;;;21.50;99.90;;;;;;4920952;29;20480;-48
2024/03/06 06:07:15;;;;;;;8.93;4.88;;;21.50;99.90;;;;;;4937434;29;20031;-48
2024/03/06 06:09:41;;;;;;;7.50;4.10;;;21.50;99.90;;;;;;4938711;29;20039;-49
2024/03/06 06:12:07;;;;;;;6.47;4.18;;;21.50;99.90;;;;;;4937808;29;20495;-49
2024/03/06 06:14:33;;;;;;;7.72;4.93;;;21.50;99.90;;;;;;4938009;29;20032;-48
2024/03/06 06:16:58;;;;;;;7.07;4.57;;;21.50;99.90;;;;;;4938369;29;20062;-48
2024/03/06 06:19:25;;;;;;;6.82;4.90;;;21.50;99.90;;;;;;4937368;29;20031;-48
2024/03/06 06:21:54;;;;;;;10.77;5.05;;;21.50;99.90;;;;;;4938455;29;20020;-48
2024/03/06 06:24:20;;;;;;;10.30;4.68;;;21.50;99.90;;;;;;4938305;29;20027;-48
2024/03/06 06:26:46;;;;;;;9.30;5.18;;;21.50;99.90;;;;;;4938263;29;20035;-48
2024/03/06 06:29:11;;;;;;;7.60;4.07;;;21.40;99.90;;;;;;4938445;29;20503;-49
2024/03/06 06:31:37;;;;;;;6.90;5.00;;;21.40;99.90;;;;;;4938164;29;20449;-49
2024/03/06 06:34:03;;;;;;;7.50;4.40;;;21.40;99.90;;;;;;4938067;29;20024;-48
2024/03/06 06:36:29;;;;;;;6.90;4.30;;;21.40;99.90;;;;;;4938217;29;20395;-48
2024/03/06 06:38:55;;;;;;;6.95;4.57;;;21.40;99.90;;;;;;4938123;29;20051;-48
2024/03/06 06:41:21;;;;;;;7.93;4.85;;;21.40;99.90;;;;;;4937936;29;20070;-48
2024/03/06 06:43:46;;;;;;;6.47;4.22;;;21.40;99.90;;;;;;4937943;29;20435;-48
2024/03/06 06:46:12;;;;;;;7.10;4.15;;;21.40;99.90;;;;;;4938033;29;20058;-49
2024/03/06 06:48:38;;;;;;;7.88;4.05;;;21.40;99.90;;;;;;4937956;29;20388;-48
2024/03/06 06:51:04;;;;;;;6.50;4.35;;;21.40;99.90;;;;;;4937798;29;20031;-48
2024/03/06 06:53:31;;;;;;;6.15;3.72;;;21.40;99.90;;;;;;4920843;29;20028;-48
2024/03/06 06:55:57;;;;;;;6.82;3.97;;;21.40;99.90;;;;;;4937762;29;20055;-48
2024/03/06 06:58:23;;;;;;;7.10;4.10;;;21.40;99.90;;;;;;4920572;29;20519;-48
2024/03/06 07:00:49;;;;;;;11.40;4.05;;;21.40;99.90;;;;;;4937584;29;20028;-49
2024/03/06 07:03:14;;;;;;;8.93;3.35;;;21.30;99.90;;;;;;4937787;29;20036;-49
2024/03/06 07:05:42;;;;;;;7.38;3.83;;;21.40;99.90;;;;;;4937560;29;20031;-49
2024/03/06 07:08:08;;;;;;;5.82;4.13;;;21.40;99.90;;;;;;4920922;29;20126;-50
2024/03/06 07:10:35;;;;;;;6.72;4.78;;;21.40;99.90;;;;;;4937497;29;20496;-49
2024/03/06 07:13:02;;;;;;;6.45;3.83;;;21.30;99.90;;;;;;4937459;29;20031;-48
2024/03/06 07:15:28;;;;;;;6.25;3.97;;;21.30;99.90;;;;;;4920291;29;20110;-49
2024/03/06 07:17:54;;;;;;;5.60;3.40;;;21.30;99.90;;;;;;4937430;29;20024;-48
2024/03/06 07:20:20;;;;;;;7.38;4.18;;;21.30;99.90;;;;;;4937430;29;20447;-49
2024/03/06 07:22:46;;;;;;;6.32;3.80;;;21.30;99.90;;;;;;4937480;29;20027;-48
2024/03/06 07:25:12;;;;;;;8.40;3.97;;;21.30;99.90;;;;;;4920097;29;20039;-48
2024/03/06 07:27:38;;;;;;;5.18;3.67;;;21.30;99.90;;;;;;4920385;29;20059;-49
2024/03/06 07:30:05;;;;;;;12.68;4.25;;;21.30;99.90;;;;;;4919983;29;20075;-49
2024/03/06 07:32:31;;;;;;;4.97;3.25;;;21.30;99.90;;;;;;4937170;29;20376;-49
2024/03/06 07:34:58;;;;;;;7.30;3.63;;;21.30;99.90;;;;;;4919887;29;20087;-49
2024/03/06 07:37:24;;;;;;;8.88;3.92;;;21.30;99.90;;;;;;4937043;29;20084;-49
2024/03/06 07:39:50;;;;;;;7.18;3.70;;;21.30;99.90;;;;;;4936902;29;20457;-48
2024/03/06 07:42:17;;;;;;;7.25;3.42;;;21.30;99.90;;;;;;4920254;29;20028;-51
2024/03/06 07:44:43;;;;;;;;;;;21.30;99.90;;;;;;4937337;29;20103;-49
2024/03/06 07:47:09;;;;;;;6.05;3.70;;;21.30;99.90;;;;;;4936820;29;20009;-50
2024/03/06 07:49:35;;;;;;;5.97;3.92;;;21.30;99.90;;;;;;4919584;29;20027;-49
2024/03/06 07:52:00;;;;;;;6.20;3.40;;;21.30;99.90;;;;;;4919676;29;20046;-49
2024/03/06 07:54:26;;;;;;;4.70;3.17;;;21.40;99.90;;;;;;4936802;29;20031;-48
2024/03/06 07:56:53;;;;;;;6.40;3.53;;;21.40;99.90;;;;;;4936771;29;20035;-49
2024/03/06 07:59:19;;;;;;;7.25;3.47;;;21.30;99.90;;;;;;4919798;29;20032;-49
2024/03/06 08:01:45;;;;;;;6.50;3.55;;;21.40;99.90;;;;;;4936452;29;20405;-48
2024/03/06 08:04:11;;;;;;;6.45;3.25;;;21.40;99.90;;;;;;4936459;29;20106;-48
2024/03/06 08:06:37;;;;;;;6.43;3.67;;;21.40;99.90;;;;;;4936265;29;20500;-49
2024/03/06 08:09:03;;;;;;;4.63;3.58;;;21.40;99.90;;;;;;4936447;29;20028;-48
2024/03/06 08:11:29;;;;;;;5.88;3.67;;;21.40;99.90;;;;;;4936337;29;20476;-48
2024/03/06 08:13:58;;;;;;;5.55;3.10;;;21.40;99.90;;;;;;4918411;29;20047;-48
2024/03/06 08:16:24;;;;;;;6.00;3.75;;;21.50;99.90;;;;;;4936229;29;20035;-48
2024/03/06 08:18:50;;;;;;;3.70;2.75;;;21.50;99.90;;;;;;4936394;29;20024;-48
2024/03/06 08:21:16;;;;;;;4.72;3.00;;;21.50;99.90;;;;;;4936005;29;20028;-49
2024/03/06 08:23:43;;;;;;;8.70;3.65;;;21.50;99.90;;;;;;4935984;29;20031;-48
2024/03/06 08:26:08;;;;;;;6.43;3.63;;;21.50;99.90;;;;;;4935940;29;20036;-48
2024/03/06 08:28:34;;;;;;;5.65;3.28;;;21.50;99.90;;;;;;4903193;29;20110;-48
2024/03/06 08:31:01;;;;;;;5.57;3.50;;;21.50;99.90;;;;;;4919079;29;20036;-48
2024/03/06 08:33:26;;;;;;;8.52;3.80;;;21.60;99.90;;;;;;4935955;29;20035;-48
2024/03/06 08:35:52;;;;;;;5.45;3.63;;;21.60;99.90;;;;;;4936168;29;20019;-48
2024/03/06 08:38:18;;;;;;;7.78;3.58;;;21.60;99.90;;;;;;4935825;29;20111;-48
2024/03/06 08:40:45;;;;;;;6.30;3.63;;;21.60;99.90;;;;;;4903198;29;20027;-48
2024/03/06 08:43:12;;;;;;;5.10;3.38;;;21.60;99.90;;;;;;4935903;29;20016;-48
2024/03/06 08:45:38;;;;;;;6.30;4.00;;;21.60;99.90;;;;;;4935760;29;20043;-47
2024/03/06 08:48:05;;;;;;;5.03;3.30;;;21.60;99.90;;;;;;4918899;29;20023;-49
2024/03/06 08:50:31;;;;;;;7.83;3.43;;;21.60;99.90;;;;;;4935649;29;20038;-48
2024/03/06 08:52:57;;;;;;;6.38;3.83;;;21.60;99.90;;;;;;4918609;29;20039;-48
2024/03/06 08:55:23;;;;;;;6.10;3.67;;;21.70;99.90;;;;;;4935874;29;20023;-48
2024/03/06 08:57:50;;;;;;;6.13;3.60;;;21.70;99.90;;;;;;4918694;29;20055;-49
2024/03/06 09:00:17;;;;;;;6.25;3.40;;;21.70;99.90;;;;;;4935695;29;20028;-48
2024/03/06 09:02:43;;;;;;;4.68;2.88;;;21.70;99.90;;;;;;4935300;29;20047;-49
2024/03/06 09:05:12;;;;;;;7.95;4.18;;;21.70;99.90;;;;;;4918259;29;20488;-48
2024/03/06 09:07:40;;;;;;;6.88;3.35;;;21.70;99.90;;;;;;4935547;29;20035;-49
2024/03/06 09:10:07;;;;;;;6.00;3.42;;;21.70;99.90;;;;;;4935379;29;20444;-49
2024/03/06 09:12:33;;;;;;;7.00;3.40;;;21.80;99.90;;;;;;4935322;29;20119;-49
2024/03/06 09:15:00;;;;;;;4.72;3.25;;;21.80;99.90;;;;;;4935281;29;20495;-49
2024/03/06 09:17:26;;;;;;;7.80;3.72;;;21.80;99.90;;;;;;4918155;29;20039;-48
2024/03/06 09:19:53;;;;;;;7.47;3.47;;;21.80;99.90;;;;;;4918264;29;20031;-49
2024/03/06 09:22:19;;;;;;;6.18;3.28;;;21.80;99.90;;;;;;4902654;29;20078;-49
2024/03/06 09:24:44;;;;;;;7.32;3.60;;;21.80;99.90;;;;;;4934540;29;20059;-49
2024/03/06 09:27:10;;;;;;;4.95;2.60;;;21.80;99.90;;;;;;4917804;29;20047;-49
2024/03/06 09:29:36;;;;;;;6.35;3.33;;;21.80;99.90;;;;;;4935258;29;20034;-49
2024/03/06 09:32:02;;;;;;;7.13;3.45;;;21.90;99.90;;;;;;4934996;29;20034;-49
2024/03/06 09:34:28;;;;;;;7.03;3.60;;;21.90;99.90;;;;;;4935093;29;20552;-48
2024/03/06 09:36:53;;;;;;;5.32;3.17;;;21.90;99.90;;;;;;4935207;29;20024;-48
2024/03/06 09:39:20;;;;;;;7.20;3.63;;;21.90;99.90;;;;;;4935021;29;20031;-49
2024/03/06 09:41:54;;;;;;;4.60;3.28;;;21.90;99.90;;;;;;4935077;29;20384;-49
2024/03/06 09:44:21;;;;;;;6.95;3.20;;;21.90;99.90;;;;;;4934942;29;20054;-49
2024/03/06 09:46:49;;;;;;;5.18;3.22;;;21.90;99.90;;;;;;4935009;29;20043;-49
2024/03/06 09:49:15;;;;;;;;;;;22.00;99.90;;;;;;4935381;29;20020;-48
2024/03/06 09:51:47;;;;;;;6.37;3.70;;;22.00;99.90;;;;;;4935035;29;19906;-48
2024/03/06 09:54:17;;;;;;;8.10;3.55;;;22.00;99.90;;;;;;4917742;29;20036;-48
2024/03/06 09:56:47;;;;;;;6.07;3.20;;;22.00;99.90;;;;;;4917662;29;20114;-48
2024/03/06 09:59:14;;;;;;;6.85;3.17;;;22.10;99.90;;;;;;4933547;29;20031;-48
2024/03/06 10:01:57;;;;;;;7.25;3.15;;;22.10;99.90;;;;;;4923219;29;20051;-49
2024/03/06 10:04:27;;;;;;;9.85;3.20;;;22.10;99.90;;;;;;4933659;29;20035;-50
2024/03/06 10:06:55;;;;;;;4.65;3.08;;;22.10;99.90;;;;;;4934552;29;20060;-49
2024/03/06 10:09:21;;;;;;;6.25;3.47;;;22.10;99.90;;;;;;4934802;29;20095;-49
2024/03/06 10:11:47;;;;;;;5.70;3.67;;;22.20;99.90;;;;;;4934682;29;20555;-48
2024/03/06 10:14:14;;;;;;;8.20;3.83;;;22.20;99.90;;;;;;4934603;29;20023;-48
2024/03/06 10:17:00;;;;;;;6.45;3.45;;;22.20;99.90;;;;;;4934657;29;20023;-49
2024/03/06 10:19:31;;;;;;;6.65;3.28;;;22.30;99.90;;;;;;4934839;29;20051;-48
2024/03/06 10:22:00;;;;;;;6.43;3.30;;;22.30;99.90;;;;;;4933682;29;20024;-48
2024/03/06 10:24:29;;;;;;;5.80;3.03;;;22.30;99.90;;;;;;4935082;29;20123;-48
2024/03/06 10:26:57;;;;;;;5.93;3.55;;;22.40;99.90;;;;;;4934595;29;20039;-49
2024/03/06 10:29:25;;;;;;;9.68;3.22;;;22.40;99.90;;;;;;4934636;29;20110;-48
2024/03/06 10:31:52;;;;;;;;;;;22.50;99.90;;;;;;4933919;29;20036;-48
2024/03/06 10:34:19;;;;;;;5.95;3.33;;;22.50;99.90;;;;;;4934717;29;19914;-48
2024/03/06 10:36:45;;;;;;;;;;;22.60;99.90;;;;;;4936072;29;20055;-48
2024/03/06 10:39:15;;;;;;;6.57;3.25;;;22.60;99.90;;;;;;4936763;29;19953;-48
2024/03/06 10:41:41;;;;;;;7.13;3.15;;;22.60;99.90;;;;;;4938138;29;20079;-49
2024/03/06 10:44:15;;;;;;;8.53;3.70;;;22.70;99.90;;;;;;4938068;29;20024;-48
2024/03/06 10:46:48;;;;;;;4.63;3.50;;;22.70;99.90;;;;;;4937870;29;20035;-48
2024/03/06 10:49:15;;;;;;;7.95;3.28;;;22.70;99.90;;;;;;4937766;29;20035;-48
2024/03/06 10:51:43;;;;;;;8.40;3.45;;;22.70;99.90;;;;;;4936667;29;20039;-48
2024/03/06 10:54:11;;;;;;;6.85;3.45;;;22.80;99.90;;;;;;4937830;29;20046;-48
2024/03/06 10:56:42;;;;;;;6.28;3.38;;;22.80;99.90;;;;;;4936632;29;20388;-48
2024/03/06 10:59:14;;;;;;;5.38;3.45;;;22.80;99.90;;;;;;4937683;29;20035;-49
2024/03/06 11:01:40;;;;;;;4.75;3.20;;;22.80;99.90;;;;;;4937468;29;20759;-48
2024/03/06 11:04:07;;;;;;;5.87;3.40;;;22.90;99.90;;;;;;4920593;29;20027;-48
2024/03/06 11:06:34;;;;;;;5.53;4.00;;;22.90;99.90;;;;;;4937466;29;20158;-49
2024/03/06 11:09:02;;;;;;;14.20;4.38;;;22.90;99.90;;;;;;4937838;29;20458;-49
2024/03/06 11:11:28;;;;;;;7.15;4.40;;;23.00;99.90;;;;;;4937591;29;20035;-49
2024/03/06 11:14:03;;;;;;;9.10;5.22;;;23.00;99.90;;;;;;4937409;29;20035;-48
2024/03/06 11:16:33;;;;;;;7.38;4.68;;;23.00;99.90;;;;;;4937572;29;20055;-49
2024/03/06 11:19:07;;;;;;;7.45;4.55;;;23.00;99.90;;;;;;4937524;29;20028;-48
2024/03/06 11:21:33;;;;;;;8.43;4.63;;;23.00;99.90;;;;;;4937474;29;20024;-49
2024/03/06 11:24:15;;;;;;;5.80;3.78;;;23.10;99.90;;;;;;4937281;29;20028;-49
2024/03/06 11:26:50;;;;;;;9.65;4.97;;;23.10;99.90;;;;;;4937100;29;20131;-49
2024/03/06 11:29:20;;;;;;;7.30;4.68;;;23.10;99.90;;;;;;4937154;29;20058;-49
2024/03/06 11:32:07;;;;;;;7.65;4.43;;;23.20;99.90;;;;;;4937137;29;20087;-49
2024/03/06 11:34:34;;;;;;;8.35;4.80;;;23.20;99.90;;;;;;4935998;29;20024;-48
2024/03/06 11:37:09;;;;;;;8.15;4.97;;;23.20;99.90;;;;;;4937051;29;20055;-49
2024/03/06 11:39:36;;;;;;;10.23;4.45;;;23.20;99.90;;;;;;4937238;29;20027;-49
2024/03/06 11:42:03;;;;;;;7.43;4.63;;;23.30;99.90;;;;;;4937188;29;20031;-49
2024/03/06 11:44:29;;;;;;;10.40;4.40;;;23.30;99.90;;;;;;4937018;29;20070;-49
2024/03/06 11:47:00;;;;;;;8.00;4.63;;;23.30;99.90;;;;;;4936811;29;20039;-48
2024/03/06 11:49:33;;;;;;;7.47;5.05;;;23.30;99.90;;;;;;4935962;29;20059;-49
2024/03/06 11:52:08;;;;;;;8.15;4.30;;;23.30;99.90;;;;;;4919658;29;20027;-49
2024/03/06 11:54:34;;;;;;;12.63;4.68;;;23.40;99.90;;;;;;4937068;29;20051;-49
2024/03/06 11:57:02;;;;;;;11.57;4.57;;;23.40;99.90;;;;;;4919672;29;20028;-49
2024/03/06 11:59:29;;;;;;;11.63;4.22;;;23.50;99.90;;;;;;4919628;29;20428;-49
2024/03/06 12:01:56;;;;;;;7.20;4.30;;;23.50;99.90;;;;;;4936450;29;20047;-49
2024/03/06 12:04:24;;;;;;;7.47;4.55;;;23.50;99.90;;;;;;4936492;29;20024;-48
2024/03/06 12:06:50;;;;;;;9.48;4.35;;;23.50;99.90;;;;;;4919277;29;20515;-49
2024/03/06 12:09:16;;;;;;;8.18;3.92;;;23.50;99.90;;;;;;4919263;29;20034;-49
2024/03/06 12:11:46;;;;;;;8.07;4.72;;;23.50;99.90;;;;;;4936392;29;20074;-49
2024/03/06 12:14:19;;;;;;;11.00;4.68;;;23.60;99.90;;;;;;4919294;29;20051;-49
2024/03/06 12:16:55;;;;;;;7.80;4.35;;;23.60;99.90;;;;;;4936224;29;20023;-49
2024/03/06 12:19:21;;;;;;;7.65;4.70;;;23.70;99.90;;;;;;4936368;29;20032;-50
2024/03/06 12:21:48;;;;;;;8.80;5.25;;;23.70;99.90;;;;;;4919232;29;20028;-49
2024/03/06 12:24:18;;;;;;;8.10;4.20;;;23.70;99.90;;;;;;4919104;29;20024;-49
2024/03/06 12:26:44;;;;;;;5.88;3.92;;;23.70;99.90;;;;;;4935861;29;20035;-49
2024/03/06 12:29:16;;;;;;;11.23;4.65;;;23.70;99.90;;;;;;4918870;29;20040;-49
2024/03/06 12:31:42;;;;;;;10.65;4.95;;;23.70;99.90;;;;;;4935934;29;20032;-50
2024/03/06 12:34:09;;;;;;;14.82;4.97;;;23.70;99.90;;;;;;4935959;29;20031;-48
2024/03/06 12:36:35;;;;;;;5.70;3.67;;;23.80;99.90;;;;;;4936121;29;20035;-49
2024/03/06 12:39:12;;;;;;;17.27;4.63;;;23.80;99.90;;;;;;4935893;29;20035;-49
2024/03/06 12:41:40;;;;;;;9.20;4.07;;;23.80;99.90;;;;;;4936009;29;20046;-49
2024/03/06 12:44:06;;;;;;;9.20;4.50;;;23.80;99.90;;;;;;4929979;29;20469;-55
2024/03/06 12:46:32;;;;;;;9.48;4.35;;;23.90;99.90;;;;;;4924998;29;20051;-51
2024/03/06 12:48:58;;;;;;;7.25;4.35;;;23.90;99.90;;;;;;4926821;29;20025;-51